createdAt,value
2019-05-17T00:01:33.441Z,11.10
2019-05-17T00:04:03.026Z,10.43
2019-05-17T00:06:33.851Z,10.67
2019-05-17T00:09:06.973Z,11.43
2019-05-17T00:11:37.679Z,11.33
2019-05-17T00:14:09.334Z,9.90
2019-05-17T00:16:39.176Z,10.37
2019-05-17T00:19:08.825Z,11.30
2019-05-17T00:21:38.270Z,12.30
2019-05-17T00:24:07.978Z,10.10
2019-05-17T00:26:39.740Z,17.13
2019-05-17T00:29:12.153Z,12.43
2019-05-17T00:31:42.556Z,10.57
2019-05-17T00:34:13.489Z,11.57
2019-05-17T00:36:43.676Z,13.40
2019-05-17T00:39:13.693Z,13.43
2019-05-17T00:41:43.570Z,14.83
2019-05-17T00:44:13.447Z,12.50
2019-05-17T00:46:46.594Z,13.60
2019-05-17T00:49:17.092Z,12.33
2019-05-17T00:51:47.875Z,14.97
2019-05-17T00:54:18.301Z,14.10
2019-05-17T00:56:49.740Z,13.67
2019-05-17T00:59:20.386Z,11.97
2019-05-17T01:01:50.761Z,12.53
2019-05-17T01:04:20.449Z,13.23
2019-05-17T01:09:27.406Z,16.47
2019-05-17T01:11:58.091Z,15.50
2019-05-17T01:14:30.563Z,15.87
2019-05-17T01:17:00.181Z,13.87
2019-05-17T01:19:31.858Z,11.73
2019-05-17T01:22:02.825Z,10.57
2019-05-17T01:24:33.500Z,11.40
2019-05-17T01:27:03.396Z,11.87
2019-05-17T01:29:33.539Z,11.87
2019-05-17T01:32:03.742Z,10.03
2019-05-17T01:34:34.340Z,11.17
2019-05-17T01:37:06.499Z,10.93
2019-05-17T01:48:19.651Z,9.70
2019-05-17T01:50:49.193Z,12.37
2019-05-17T01:53:18.724Z,12.13
2019-05-17T01:58:24.362Z,11.70
2019-05-17T02:00:57.161Z,13.13
2019-05-17T02:03:26.980Z,16.10
2019-05-17T02:05:57.543Z,13.67
2019-05-17T02:08:27.332Z,13.33
2019-05-17T02:10:57.458Z,13.27
2019-05-17T02:13:27.482Z,15.37
2019-05-17T02:15:57.958Z,11.67
2019-05-17T02:18:28.006Z,12.90
2019-05-17T02:20:57.915Z,14.47
2019-05-17T02:23:27.585Z,13.93
2019-05-17T02:25:57.896Z,13.53
2019-05-17T02:28:32.404Z,14.47
2019-05-17T02:31:03.603Z,12.10
2019-05-17T02:33:34.323Z,12.93
2019-05-17T02:36:04.168Z,12.13
2019-05-17T02:38:34.286Z,11.13
2019-05-17T02:41:04.029Z,11.90
2019-05-17T02:43:34.680Z,11.90
2019-05-17T02:46:04.566Z,11.40
2019-05-17T02:48:34.495Z,12.57
2019-05-17T02:51:05.285Z,11.33
2019-05-17T02:53:34.915Z,13.07
2019-05-17T02:56:04.506Z,13.53
2019-05-17T02:58:34.750Z,12.77
2019-05-17T03:01:05.248Z,12.73
2019-05-17T03:03:35.217Z,13.53
2019-05-17T03:06:05.632Z,15.10
2019-05-17T03:08:35.567Z,14.20
2019-05-17T03:11:05.785Z,10.90
2019-05-17T03:13:36.206Z,12.10
2019-05-17T03:16:06.468Z,10.37
2019-05-17T03:18:36.223Z,13.70
2019-05-17T03:21:06.292Z,12.97
2019-05-17T03:23:35.902Z,12.70
2019-05-17T03:26:06.288Z,13.43
2019-05-17T03:28:37.331Z,13.20
2019-05-17T03:31:09.038Z,14.70
2019-05-17T03:33:39.247Z,12.60
2019-05-17T03:36:09.227Z,12.70
2019-05-17T03:38:39.325Z,11.47
2019-05-17T03:41:18.525Z,10.70
2019-05-17T03:43:44.111Z,12.60
2019-05-17T03:46:13.879Z,14.63
2019-05-17T03:48:43.648Z,13.67
2019-05-17T03:51:13.900Z,12.57
2019-05-17T03:53:44.199Z,14.50
2019-05-17T03:56:14.448Z,13.63
2019-05-17T03:58:44.380Z,23.57
2019-05-17T04:01:17.318Z,27.77
2019-05-17T04:03:47.520Z,34.30
2019-05-17T04:06:18.215Z,25.07
2019-05-17T04:08:48.071Z,22.07
2019-05-17T04:11:28.004Z,16.50
2019-05-17T04:13:49.834Z,18.17
2019-05-17T04:16:19.559Z,14.70
2019-05-17T04:18:49.504Z,13.20
2019-05-17T04:21:19.330Z,13.90
2019-05-17T04:23:49.051Z,13.93
2019-05-17T04:26:22.757Z,14.77
2019-05-17T04:28:53.226Z,14.20
2019-05-17T04:31:23.644Z,17.03
2019-05-17T04:33:54.076Z,17.73
2019-05-17T04:36:24.246Z,14.40
2019-05-17T04:38:53.948Z,14.90
2019-05-17T04:41:39.515Z,14.60
2019-05-17T04:43:55.891Z,13.63
2019-05-17T04:46:25.998Z,15.03
2019-05-17T04:48:56.366Z,16.47
2019-05-17T04:51:26.130Z,16.87
2019-05-17T04:53:55.790Z,16.00
2019-05-17T04:56:25.463Z,17.57
2019-05-17T04:58:54.974Z,13.97
2019-05-17T05:01:25.232Z,13.30
2019-05-17T05:03:55.028Z,13.80
2019-05-17T05:06:24.649Z,15.47
2019-05-17T05:08:54.648Z,20.87
2019-05-17T05:11:24.378Z,24.70
2019-05-17T05:13:53.947Z,30.10
2019-05-17T05:16:23.222Z,39.10
2019-05-17T05:18:53.340Z,37.20
2019-05-17T05:21:23.401Z,41.37
2019-05-17T05:23:53.785Z,41.77
2019-05-17T05:26:23.248Z,39.67
2019-05-17T05:28:53.097Z,33.63
2019-05-17T05:31:22.960Z,33.57
2019-05-17T05:33:52.455Z,41.10
2019-05-17T05:36:22.474Z,40.47
2019-05-17T05:38:52.483Z,41.00
2019-05-17T05:41:22.577Z,39.23
2019-05-17T05:43:52.739Z,38.93
2019-05-17T05:46:23.344Z,31.30
2019-05-17T05:48:52.971Z,31.97
2019-05-17T05:51:22.427Z,29.77
2019-05-17T05:53:52.313Z,26.50
2019-05-17T05:56:24.970Z,27.80
2019-05-17T05:58:54.527Z,29.20
2019-05-17T06:01:28.395Z,31.20
2019-05-17T06:03:58.650Z,36.70
2019-05-17T06:06:28.970Z,66.73
2019-05-17T06:08:59.127Z,46.73
2019-05-17T06:11:32.068Z,43.23
2019-05-17T06:14:01.719Z,34.10
2019-05-17T06:16:33.032Z,34.50
2019-05-17T06:19:02.945Z,34.10
2019-05-17T06:21:33.388Z,29.30
2019-05-17T06:24:03.031Z,32.30
2019-05-17T06:26:33.217Z,35.13
2019-05-17T06:29:03.486Z,32.57
2019-05-17T06:31:37.004Z,31.20
2019-05-17T06:34:05.719Z,33.83
2019-05-17T06:36:35.124Z,31.33
2019-05-17T06:39:06.353Z,32.20
2019-05-17T06:41:35.938Z,30.60
2019-05-17T06:44:05.777Z,33.77
2019-05-17T06:46:35.980Z,38.33
2019-05-17T06:49:08.949Z,31.33
2019-05-17T06:51:38.957Z,30.27
2019-05-17T06:54:08.663Z,23.70
2019-05-17T06:56:38.821Z,25.43
2019-05-17T06:59:08.515Z,38.63
2019-05-17T07:01:40.824Z,29.27
2019-05-17T07:04:10.545Z,24.27
2019-05-17T07:06:40.614Z,22.90
2019-05-17T07:09:10.197Z,25.20
2019-05-17T07:11:39.925Z,26.27
2019-05-17T07:14:09.906Z,23.60
2019-05-17T07:19:16.096Z,23.20
2019-05-17T07:21:46.113Z,23.90
2019-05-17T07:24:15.790Z,22.07
2019-05-17T07:26:45.488Z,25.63
2019-05-17T07:29:15.103Z,25.17
2019-05-17T07:31:45.080Z,24.93
2019-05-17T07:34:15.087Z,24.83
2019-05-17T07:36:44.717Z,24.70
2019-05-17T07:39:15.115Z,22.40
2019-05-17T07:41:44.554Z,23.40
2019-05-17T07:44:14.524Z,22.20
2019-05-17T07:46:44.091Z,21.20
2019-05-17T07:49:13.802Z,20.70
2019-05-17T07:51:43.055Z,23.57
2019-05-17T07:54:12.692Z,22.27
2019-05-17T07:56:41.919Z,21.90
2019-05-17T07:59:11.224Z,22.23
2019-05-17T08:01:41.242Z,21.87
2019-05-17T08:04:11.078Z,19.50
2019-05-17T08:06:40.724Z,19.90
2019-05-17T08:09:13.757Z,23.17
2019-05-17T08:11:41.952Z,20.47
2019-05-17T08:14:12.065Z,19.83
2019-05-17T08:16:42.162Z,19.20
2019-05-17T08:19:11.874Z,20.83
2019-05-17T08:21:41.263Z,21.90
2019-05-17T08:24:10.695Z,18.70
2019-05-17T08:26:40.631Z,22.30
2019-05-17T08:29:10.551Z,20.47
2019-05-17T08:31:40.696Z,21.37
2019-05-17T08:34:10.542Z,20.20
2019-05-17T08:36:41.088Z,20.67
2019-05-17T08:39:10.806Z,20.27
2019-05-17T08:41:40.619Z,18.63
2019-05-17T08:44:10.827Z,22.20
2019-05-17T08:46:40.664Z,20.83
2019-05-17T08:49:10.289Z,17.80
2019-05-17T08:51:40.081Z,19.30
2019-05-17T08:54:10.336Z,20.20
2019-05-17T08:56:40.549Z,20.80
2019-05-17T08:59:10.256Z,20.80
2019-05-17T09:01:41.772Z,18.03
2019-05-17T09:04:10.577Z,18.73
2019-05-17T09:06:39.906Z,20.87
2019-05-17T09:09:10.056Z,19.77
2019-05-17T09:11:39.524Z,19.00
2019-05-17T09:14:10.500Z,18.43
2019-05-17T09:16:40.232Z,22.80
2019-05-17T09:19:10.106Z,19.43
2019-05-17T09:21:40.234Z,18.90
2019-05-17T09:24:10.406Z,18.77
2019-05-17T09:26:40.168Z,19.57
2019-05-17T09:29:10.751Z,20.90
2019-05-17T09:31:40.948Z,20.30
2019-05-17T09:34:10.471Z,19.27
2019-05-17T09:36:40.828Z,20.57
2019-05-17T09:39:10.811Z,15.83
2019-05-17T09:41:39.971Z,19.23
2019-05-17T09:44:15.611Z,18.70
2019-05-17T09:46:39.991Z,17.93
2019-05-17T09:49:10.459Z,17.37
2019-05-17T09:51:39.952Z,17.53
2019-05-17T09:54:10.244Z,16.37
2019-05-17T09:56:39.859Z,16.50
2019-05-17T09:59:09.927Z,18.63
2019-05-17T10:01:39.642Z,23.03
2019-05-17T10:04:13.023Z,17.93
2019-05-17T10:06:40.154Z,15.67
2019-05-17T10:09:09.803Z,15.97
2019-05-17T10:11:40.068Z,16.57
2019-05-17T10:14:11.520Z,16.73
2019-05-17T10:16:41.178Z,17.60
2019-05-17T10:19:10.800Z,16.73
2019-05-17T10:21:43.424Z,16.33
2019-05-17T10:24:20.065Z,16.87
2019-05-17T10:26:49.950Z,17.30
2019-05-17T10:29:19.684Z,13.57
2019-05-17T10:31:50.440Z,14.53
2019-05-17T10:34:20.745Z,15.63
2019-05-17T10:36:51.035Z,13.17
2019-05-17T10:39:20.747Z,12.80
2019-05-17T10:41:51.586Z,13.80
2019-05-17T10:44:23.328Z,13.40
2019-05-17T10:46:53.361Z,12.93
2019-05-17T10:49:24.031Z,16.70
2019-05-17T10:51:56.768Z,13.73
2019-05-17T10:54:29.969Z,15.13
2019-05-17T10:56:59.714Z,16.07
2019-05-17T10:59:30.561Z,14.37
2019-05-17T11:02:01.872Z,11.93
2019-05-17T11:04:31.359Z,11.77
2019-05-17T11:07:01.453Z,14.13
2019-05-17T11:09:31.524Z,13.87
2019-05-17T11:12:04.274Z,12.03
2019-05-17T11:14:50.322Z,11.63
2019-05-17T11:17:09.102Z,12.60
2019-05-17T11:19:38.646Z,13.47
2019-05-17T11:22:18.130Z,13.80
2019-05-17T11:24:48.470Z,13.30
2019-05-17T11:27:18.617Z,16.10
2019-05-17T11:29:48.108Z,11.83
2019-05-17T11:32:17.997Z,13.40
2019-05-17T11:34:47.547Z,12.57
2019-05-17T11:37:17.294Z,14.07
2019-05-17T11:39:47.059Z,15.10
2019-05-17T11:42:17.684Z,12.70
2019-05-17T11:44:49.447Z,14.50
2019-05-17T11:47:18.738Z,11.13
2019-05-17T11:49:48.185Z,9.33
2019-05-17T11:52:18.159Z,11.07
2019-05-17T11:54:48.450Z,13.87
2019-05-17T11:57:18.405Z,11.43
2019-05-17T11:59:48.068Z,10.43
2019-05-17T12:02:21.005Z,12.40
2019-05-17T12:04:49.676Z,10.43
2019-05-17T12:07:19.893Z,9.53
2019-05-17T12:09:49.699Z,8.77
2019-05-17T12:12:19.547Z,12.00
2019-05-17T12:14:49.228Z,14.20
2019-05-17T12:17:22.521Z,10.67
2019-05-17T12:19:52.213Z,8.30
2019-05-17T12:22:22.950Z,11.83
2019-05-17T12:24:52.652Z,9.10
2019-05-17T12:27:22.835Z,11.00
2019-05-17T12:29:52.121Z,8.70
2019-05-17T12:32:21.693Z,13.83
2019-05-17T12:34:52.353Z,8.60
2019-05-17T12:37:22.514Z,9.13
2019-05-17T12:39:52.872Z,11.97
2019-05-17T12:42:22.744Z,8.60
2019-05-17T12:44:52.704Z,8.60
2019-05-17T12:47:22.584Z,9.17
2019-05-17T12:49:52.174Z,7.87
2019-05-17T12:52:22.928Z,7.90
2019-05-17T12:54:52.308Z,9.73
2019-05-17T12:57:22.699Z,9.53
2019-05-17T12:59:52.341Z,9.57
2019-05-17T13:02:22.089Z,12.33
2019-05-17T13:04:51.552Z,9.67
2019-05-17T13:07:22.002Z,9.40
2019-05-17T13:09:51.919Z,7.93
2019-05-17T13:12:21.637Z,10.60
2019-05-17T13:14:52.636Z,12.50
2019-05-17T13:17:21.966Z,6.73
2019-05-17T13:19:51.684Z,8.70
2019-05-17T13:22:21.348Z,10.23
2019-05-17T13:24:52.525Z,9.53
2019-05-17T13:27:21.831Z,12.93
2019-05-17T13:29:51.527Z,9.07
2019-05-17T13:32:21.103Z,7.87
2019-05-17T13:34:50.711Z,8.10
2019-05-17T13:37:20.118Z,8.40
2019-05-17T13:39:50.172Z,9.50
2019-05-17T13:42:19.834Z,9.50
2019-05-17T13:44:49.162Z,7.90
2019-05-17T13:47:20.203Z,10.73
2019-05-17T13:49:50.036Z,8.90
2019-05-17T13:52:24.050Z,7.93
2019-05-17T13:54:54.236Z,8.07
2019-05-17T13:57:28.460Z,7.60
2019-05-17T14:00:03.619Z,8.10
2019-05-17T14:10:26.266Z,8.37
2019-05-17T14:21:28.958Z,13.90
2019-05-17T14:23:59.392Z,9.63
2019-05-17T14:26:35.209Z,8.40
2019-05-17T14:29:11.551Z,8.23
2019-05-17T14:31:40.878Z,9.77
2019-05-17T14:34:10.779Z,8.00
2019-05-17T14:36:40.228Z,11.80
2019-05-17T14:39:09.661Z,7.53
2019-05-17T14:41:39.300Z,8.13
2019-05-17T14:44:12.530Z,9.07
2019-05-17T14:46:42.408Z,9.43
2019-05-17T14:49:12.271Z,10.23
2019-05-17T14:51:41.777Z,8.60
2019-05-17T14:54:10.906Z,8.20
2019-05-17T14:56:40.146Z,7.13
2019-05-17T14:59:11.182Z,12.70
2019-05-17T15:01:41.000Z,8.27
2019-05-17T15:04:11.920Z,8.30
2019-05-17T15:06:41.607Z,8.00
2019-05-17T15:09:11.788Z,7.37
2019-05-17T15:11:41.395Z,8.37
2019-05-17T15:14:11.752Z,7.80
2019-05-17T15:16:41.500Z,7.43
2019-05-17T15:19:11.759Z,8.10
2019-05-17T15:21:41.327Z,7.13
2019-05-17T15:24:11.031Z,7.10
2019-05-17T15:26:40.474Z,7.50
2019-05-17T15:29:10.729Z,8.80
2019-05-17T15:31:40.335Z,7.70
2019-05-17T15:34:09.933Z,6.10
2019-05-17T15:36:39.489Z,5.80
2019-05-17T15:39:09.009Z,9.23
2019-05-17T15:41:38.381Z,6.97
2019-05-17T15:44:09.160Z,7.57
2019-05-17T15:46:38.723Z,6.97
2019-05-17T15:49:08.602Z,6.50
2019-05-17T15:51:38.336Z,7.10
2019-05-17T15:54:07.852Z,6.70
2019-05-17T15:56:37.678Z,7.10
2019-05-17T15:59:07.719Z,9.33
2019-05-17T16:01:37.150Z,7.67
2019-05-17T16:04:06.725Z,6.70
2019-05-17T16:06:36.388Z,8.43
2019-05-17T16:09:07.568Z,7.60
2019-05-17T16:11:37.816Z,8.90
2019-05-17T16:14:07.758Z,8.60
2019-05-17T16:16:37.131Z,8.50
2019-05-17T16:21:42.919Z,10.33
2019-05-17T16:24:12.201Z,8.47
2019-05-17T16:26:41.905Z,10.07
2019-05-17T16:31:46.625Z,11.80
2019-05-17T16:34:16.017Z,8.00
2019-05-17T16:36:45.630Z,7.80
2019-05-17T16:39:15.094Z,9.10
2019-05-17T16:41:45.302Z,7.30
2019-05-17T16:44:18.507Z,7.43
2019-05-17T16:46:48.482Z,11.90
2019-05-17T16:49:18.055Z,8.67
2019-05-17T16:51:48.145Z,11.80
2019-05-17T16:54:18.778Z,8.87
2019-05-17T16:56:49.933Z,9.60
2019-05-17T16:59:20.452Z,7.43
2019-05-17T17:01:50.925Z,8.43
2019-05-17T17:04:20.471Z,12.70
2019-05-17T17:06:50.056Z,9.10
2019-05-17T17:09:19.650Z,7.07
2019-05-17T17:11:49.720Z,6.93
2019-05-17T17:14:20.929Z,6.87
2019-05-17T17:16:50.438Z,9.30
2019-05-17T17:19:20.614Z,7.20
2019-05-17T17:21:50.300Z,7.27
2019-05-17T17:24:20.805Z,8.90
2019-05-17T17:26:50.168Z,10.00
2019-05-17T17:29:21.065Z,6.43
2019-05-17T17:31:54.048Z,6.60
2019-05-17T17:34:23.466Z,8.30
2019-05-17T17:36:53.533Z,8.40
2019-05-17T17:39:23.440Z,8.20
2019-05-17T17:41:53.702Z,7.13
2019-05-17T17:56:58.274Z,6.60
2019-05-17T17:59:39.067Z,6.93
2019-05-17T18:02:09.958Z,9.73
2019-05-17T18:04:40.911Z,6.70
2019-05-17T18:13:15.769Z,7.63
2019-05-17T18:15:50.786Z,7.97
2019-05-17T18:21:25.975Z,9.83
2019-05-17T18:24:31.262Z,9.20
2019-05-17T18:27:03.704Z,9.77
2019-05-17T18:29:40.093Z,10.53
2019-05-17T18:32:16.952Z,11.17
2019-05-17T18:34:47.120Z,11.17
2019-05-17T18:37:26.865Z,10.77
2019-05-17T18:46:29.461Z,10.10
2019-05-17T18:49:00.093Z,12.00
2019-05-17T18:51:32.309Z,12.60
2019-05-17T18:54:03.862Z,13.87
2019-05-17T19:03:31.727Z,9.40
2019-05-17T19:06:17.625Z,10.50
2019-05-17T19:09:15.654Z,11.50
2019-05-17T19:15:17.431Z,13.13
2019-05-17T19:18:05.169Z,11.80
2019-05-17T19:20:54.058Z,8.87
2019-05-17T19:24:28.460Z,10.60
2019-05-17T19:35:16.745Z,11.40
2019-05-17T19:41:24.316Z,15.17
2019-05-17T19:43:54.818Z,12.77
2019-05-17T19:46:25.733Z,11.43
2019-05-17T19:51:36.049Z,14.20
2019-05-17T19:54:06.437Z,13.37
2019-05-17T19:56:40.206Z,16.20
2019-05-17T19:59:22.813Z,13.50
2019-05-17T20:01:55.255Z,11.67
2019-05-17T20:04:26.387Z,11.40
2019-05-17T20:06:56.891Z,11.93
2019-05-17T20:09:37.651Z,12.20
2019-05-17T20:12:10.125Z,12.40
2019-05-17T20:14:46.254Z,12.67
2019-05-17T20:19:57.237Z,14.77
2019-05-17T20:22:28.775Z,14.33
2019-05-17T20:24:59.430Z,11.57
2019-05-17T20:27:29.711Z,14.40
2019-05-17T20:30:11.930Z,15.57
2019-05-17T20:32:48.136Z,11.93
2019-05-17T20:35:19.184Z,13.60
2019-05-17T20:37:48.863Z,13.03
2019-05-17T20:40:19.375Z,12.40
2019-05-17T20:42:49.551Z,11.00
2019-05-17T20:45:32.134Z,12.13
2019-05-17T20:47:50.726Z,11.37
2019-05-17T20:50:25.297Z,11.83
2019-05-17T20:52:55.101Z,12.27
2019-05-17T21:01:12.689Z,11.60
2019-05-17T21:03:42.583Z,12.70
2019-05-17T21:06:12.790Z,11.67
2019-05-17T21:08:46.218Z,11.63
2019-05-17T21:11:14.903Z,14.77
2019-05-17T21:13:44.767Z,11.43
2019-05-17T21:16:15.005Z,11.73
2019-05-17T21:18:45.243Z,12.50
2019-05-17T21:23:52.824Z,14.00
2019-05-17T21:26:25.715Z,15.90
2019-05-17T21:28:55.266Z,13.00
2019-05-17T21:31:28.803Z,14.80
2019-05-17T21:33:58.553Z,14.03
2019-05-17T21:36:29.824Z,14.23
2019-05-17T21:38:59.564Z,14.00
2019-05-17T21:41:30.002Z,13.07
2019-05-17T21:43:59.555Z,11.57
2019-05-17T21:46:32.563Z,11.90
2019-05-17T21:49:03.529Z,14.30
2019-05-17T21:51:33.237Z,13.73
2019-05-17T21:54:03.153Z,12.83
2019-05-17T21:56:33.807Z,12.60
2019-05-17T21:59:03.838Z,10.80
2019-05-17T22:01:34.705Z,10.80
2019-05-17T22:06:42.872Z,19.40
2019-05-17T22:09:12.625Z,11.70
2019-05-17T22:11:45.243Z,9.50
2019-05-17T22:14:15.505Z,9.70
2019-05-17T22:16:45.115Z,10.23
2019-05-17T22:19:15.137Z,10.40
2019-05-17T22:21:45.816Z,9.97
2019-05-17T22:24:15.956Z,9.27
2019-05-17T22:26:46.007Z,10.63
2019-05-17T22:29:17.070Z,9.20
2019-05-17T22:31:48.046Z,10.20
2019-05-17T22:34:17.821Z,11.40
2019-05-17T22:36:47.743Z,10.70
2019-05-17T22:39:19.214Z,12.60
2019-05-17T22:41:50.180Z,14.27
2019-05-17T22:44:20.093Z,11.80
2019-05-17T22:46:50.326Z,12.27
2019-05-17T22:49:20.565Z,12.97
2019-05-17T22:51:50.219Z,10.30
2019-05-17T22:54:20.563Z,12.70
2019-05-17T22:56:50.773Z,14.93
2019-05-17T22:59:20.960Z,12.43
2019-05-17T23:01:50.600Z,12.00
2019-05-17T23:04:20.304Z,13.63
2019-05-17T23:06:49.926Z,12.90
2019-05-17T23:09:19.723Z,12.20
2019-05-17T23:11:48.997Z,13.13
2019-05-17T23:14:19.887Z,11.07
2019-05-17T23:16:51.871Z,12.90
2019-05-17T23:19:20.836Z,12.20
2019-05-17T23:21:51.763Z,11.30
2019-05-17T23:24:21.317Z,11.53
2019-05-17T23:26:52.118Z,11.93
2019-05-17T23:29:22.278Z,12.23
2019-05-17T23:31:52.235Z,12.77
2019-05-17T23:34:23.616Z,13.53
2019-05-17T23:36:53.700Z,12.00
2019-05-17T23:39:23.394Z,15.23
2019-05-17T23:41:52.746Z,12.33
2019-05-17T23:44:22.769Z,12.17
2019-05-17T23:47:06.182Z,11.00
2019-05-17T23:49:24.140Z,13.03
2019-05-17T23:51:54.514Z,13.30
2019-05-17T23:54:24.382Z,12.43
2019-05-17T23:56:54.809Z,14.70
2019-05-17T23:59:24.798Z,15.07
